sensor_id;sensor_type;location;lat;lon;timestamp;P1;durP1;ratioP1;P2;durP2;ratioP2
52718;SDS011;38616;42.140;24.760;2024-03-22T00:02:23;16.58;;;7.18;;
52718;SDS011;38616;42.140;24.760;2024-03-22T00:04:48;13.60;;;7.63;;
52718;SDS011;38616;42.140;24.760;2024-03-22T00:07:14;20.63;;;7.90;;
52718;SDS011;38616;42.140;24.760;2024-03-22T00:09:39;20.08;;;7.57;;
52718;SDS011;38616;42.140;24.760;2024-03-22T00:12:05;15.60;;;7.30;;
52718;SDS011;38616;42.140;24.760;2024-03-22T00:14:30;15.77;;;7.10;;
52718;SDS011;38616;42.140;24.760;2024-03-22T00:16:56;12.50;;;6.90;;
52718;SDS011;38616;42.140;24.760;2024-03-22T00:19:21;14.43;;;6.95;;
52718;SDS011;38616;42.140;24.760;2024-03-22T00:21:47;16.60;;;7.80;;
52718;SDS011;38616;42.140;24.760;2024-03-22T00:24:12;14.25;;;6.57;;
52718;SDS011;38616;42.140;24.760;2024-03-22T00:26:38;13.85;;;7.00;;
52718;SDS011;38616;42.140;24.760;2024-03-22T00:29:04;13.90;;;7.10;;
52718;SDS011;38616;42.140;24.760;2024-03-22T00:31:29;14.93;;;6.68;;
52718;SDS011;38616;42.140;24.760;2024-03-22T00:33:55;13.63;;;6.57;;
52718;SDS011;38616;42.140;24.760;2024-03-22T00:36:20;17.15;;;6.65;;
52718;SDS011;38616;42.140;24.760;2024-03-22T00:38:46;12.63;;;6.43;;
52718;SDS011;38616;42.140;24.760;2024-03-22T00:41:12;13.27;;;7.03;;
52718;SDS011;38616;42.140;24.760;2024-03-22T00:43:38;14.20;;;6.65;;
52718;SDS011;38616;42.140;24.760;2024-03-22T00:46:03;11.77;;;6.40;;
52718;SDS011;38616;42.140;24.760;2024-03-22T00:48:29;13.48;;;6.70;;
52718;SDS011;38616;42.140;24.760;2024-03-22T00:50:55;13.95;;;6.43;;
52718;SDS011;38616;42.140;24.760;2024-03-22T00:53:20;13.93;;;6.90;;
52718;SDS011;38616;42.140;24.760;2024-03-22T00:55:50;13.15;;;6.93;;
52718;SDS011;38616;42.140;24.760;2024-03-22T00:58:19;15.65;;;6.68;;
52718;SDS011;38616;42.140;24.760;2024-03-22T01:00:45;15.30;;;7.18;;
52718;SDS011;38616;42.140;24.760;2024-03-22T01:03:11;13.52;;;6.93;;
52718;SDS011;38616;42.140;24.760;2024-03-22T01:05:37;11.88;;;6.38;;
52718;SDS011;38616;42.140;24.760;2024-03-22T01:08:02;16.45;;;7.03;;
52718;SDS011;38616;42.140;24.760;2024-03-22T01:10:28;16.38;;;7.40;;
52718;SDS011;38616;42.140;24.760;2024-03-22T01:12:53;14.60;;;6.93;;
52718;SDS011;38616;42.140;24.760;2024-03-22T01:15:19;15.48;;;7.43;;
52718;SDS011;38616;42.140;24.760;2024-03-22T01:17:44;14.82;;;7.20;;
52718;SDS011;38616;42.140;24.760;2024-03-22T01:22:46;12.13;;;6.72;;
52718;SDS011;38616;42.140;24.760;2024-03-22T01:25:12;16.90;;;8.55;;
52718;SDS011;38616;42.140;24.760;2024-03-22T01:27:37;15.65;;;7.70;;
52718;SDS011;38616;42.140;24.760;2024-03-22T01:30:03;17.05;;;8.40;;
52718;SDS011;38616;42.140;24.760;2024-03-22T01:32:29;17.35;;;8.90;;
52718;SDS011;38616;42.140;24.760;2024-03-22T01:34:54;19.38;;;8.07;;
52718;SDS011;38616;42.140;24.760;2024-03-22T01:37:20;18.25;;;7.85;;
52718;SDS011;38616;42.140;24.760;2024-03-22T01:39:45;19.20;;;8.98;;
52718;SDS011;38616;42.140;24.760;2024-03-22T01:42:11;16.65;;;8.45;;
52718;SDS011;38616;42.140;24.760;2024-03-22T01:44:36;16.15;;;8.57;;
52718;SDS011;38616;42.140;24.760;2024-03-22T01:47:02;14.98;;;7.90;;
52718;SDS011;38616;42.140;24.760;2024-03-22T01:49:28;17.90;;;8.93;;
52718;SDS011;38616;42.140;24.760;2024-03-22T01:51:55;15.73;;;8.10;;
52718;SDS011;38616;42.140;24.760;2024-03-22T01:54:20;18.05;;;7.95;;
52718;SDS011;38616;42.140;24.760;2024-03-22T01:56:46;16.42;;;8.25;;
52718;SDS011;38616;42.140;24.760;2024-03-22T01:59:12;20.10;;;8.27;;
52718;SDS011;38616;42.140;24.760;2024-03-22T02:01:38;15.95;;;8.13;;
52718;SDS011;38616;42.140;24.760;2024-03-22T02:04:04;16.42;;;7.32;;
52718;SDS011;38616;42.140;24.760;2024-03-22T02:06:30;17.45;;;8.20;;
52718;SDS011;38616;42.140;24.760;2024-03-22T02:08:56;14.23;;;7.70;;
52718;SDS011;38616;42.140;24.760;2024-03-22T02:11:22;16.63;;;8.45;;
52718;SDS011;38616;42.140;24.760;2024-03-22T02:13:49;16.60;;;8.80;;
52718;SDS011;38616;42.140;24.760;2024-03-22T02:16:14;19.90;;;9.13;;
52718;SDS011;38616;42.140;24.760;2024-03-22T02:18:40;16.42;;;8.68;;
52718;SDS011;38616;42.140;24.760;2024-03-22T02:21:05;19.50;;;9.43;;
52718;SDS011;38616;42.140;24.760;2024-03-22T02:23:34;17.42;;;8.18;;
52718;SDS011;38616;42.140;24.760;2024-03-22T02:26:01;22.42;;;9.25;;
52718;SDS011;38616;42.140;24.760;2024-03-22T02:28:27;20.35;;;9.45;;
52718;SDS011;38616;42.140;24.760;2024-03-22T02:30:53;17.52;;;8.82;;
52718;SDS011;38616;42.140;24.760;2024-03-22T02:33:18;24.42;;;9.60;;
52718;SDS011;38616;42.140;24.760;2024-03-22T02:35:47;18.50;;;9.32;;
52718;SDS011;38616;42.140;24.760;2024-03-22T02:38:14;21.38;;;10.50;;
52718;SDS011;38616;42.140;24.760;2024-03-22T02:40:39;17.50;;;9.52;;
52718;SDS011;38616;42.140;24.760;2024-03-22T02:43:05;18.00;;;9.13;;
52718;SDS011;38616;42.140;24.760;2024-03-22T02:45:31;19.88;;;9.38;;
52718;SDS011;38616;42.140;24.760;2024-03-22T02:47:57;22.90;;;9.98;;
52718;SDS011;38616;42.140;24.760;2024-03-22T02:50:22;18.00;;;8.93;;
52718;SDS011;38616;42.140;24.760;2024-03-22T02:52:48;17.70;;;9.90;;
52718;SDS011;38616;42.140;24.760;2024-03-22T02:55:14;20.67;;;9.88;;
52718;SDS011;38616;42.140;24.760;2024-03-22T02:57:40;16.88;;;9.02;;
52718;SDS011;38616;42.140;24.760;2024-03-22T03:00:05;19.42;;;9.43;;
52718;SDS011;38616;42.140;24.760;2024-03-22T03:02:31;15.93;;;8.95;;
52718;SDS011;38616;42.140;24.760;2024-03-22T03:04:57;17.92;;;9.35;;
52718;SDS011;38616;42.140;24.760;2024-03-22T03:07:24;17.10;;;8.65;;
52718;SDS011;38616;42.140;24.760;2024-03-22T03:09:50;18.52;;;9.07;;
52718;SDS011;38616;42.140;24.760;2024-03-22T03:12:15;18.50;;;8.57;;
52718;SDS011;38616;42.140;24.760;2024-03-22T03:14:40;19.25;;;9.55;;
52718;SDS011;38616;42.140;24.760;2024-03-22T03:17:07;15.32;;;8.48;;
52718;SDS011;38616;42.140;24.760;2024-03-22T03:19:32;16.80;;;7.93;;
52718;SDS011;38616;42.140;24.760;2024-03-22T03:24:26;17.83;;;8.20;;
52718;SDS011;38616;42.140;24.760;2024-03-22T03:26:51;16.15;;;8.95;;
52718;SDS011;38616;42.140;24.760;2024-03-22T03:29:16;23.38;;;9.70;;
52718;SDS011;38616;42.140;24.760;2024-03-22T03:31:42;21.10;;;9.77;;
52718;SDS011;38616;42.140;24.760;2024-03-22T03:34:07;18.60;;;9.48;;
52718;SDS011;38616;42.140;24.760;2024-03-22T03:36:33;18.35;;;9.77;;
52718;SDS011;38616;42.140;24.760;2024-03-22T03:38:58;16.95;;;8.45;;
52718;SDS011;38616;42.140;24.760;2024-03-22T03:41:24;20.20;;;9.48;;
52718;SDS011;38616;42.140;24.760;2024-03-22T03:43:49;20.33;;;10.57;;
52718;SDS011;38616;42.140;24.760;2024-03-22T03:46:15;22.00;;;9.93;;
52718;SDS011;38616;42.140;24.760;2024-03-22T03:48:40;21.73;;;10.35;;
52718;SDS011;38616;42.140;24.760;2024-03-22T03:51:06;20.13;;;10.10;;
52718;SDS011;38616;42.140;24.760;2024-03-22T03:53:31;19.08;;;9.50;;
52718;SDS011;38616;42.140;24.760;2024-03-22T03:55:57;23.42;;;10.98;;
52718;SDS011;38616;42.140;24.760;2024-03-22T03:58:22;26.25;;;11.10;;
52718;SDS011;38616;42.140;24.760;2024-03-22T04:00:48;24.88;;;11.02;;
52718;SDS011;38616;42.140;24.760;2024-03-22T04:05:45;21.73;;;10.77;;
52718;SDS011;38616;42.140;24.760;2024-03-22T04:08:11;22.60;;;11.10;;
52718;SDS011;38616;42.140;24.760;2024-03-22T04:10:36;23.30;;;12.73;;
52718;SDS011;38616;42.140;24.760;2024-03-22T04:13:02;19.90;;;10.90;;
52718;SDS011;38616;42.140;24.760;2024-03-22T04:15:27;27.60;;;12.50;;
52718;SDS011;38616;42.140;24.760;2024-03-22T04:17:55;22.23;;;12.60;;
52718;SDS011;38616;42.140;24.760;2024-03-22T04:20:21;25.05;;;12.90;;
52718;SDS011;38616;42.140;24.760;2024-03-22T04:22:47;24.05;;;11.65;;
52718;SDS011;38616;42.140;24.760;2024-03-22T04:25:14;19.88;;;10.15;;
52718;SDS011;38616;42.140;24.760;2024-03-22T04:27:40;26.90;;;12.82;;
52718;SDS011;38616;42.140;24.760;2024-03-22T04:30:07;24.75;;;12.85;;
52718;SDS011;38616;42.140;24.760;2024-03-22T04:34:59;25.42;;;12.20;;
52718;SDS011;38616;42.140;24.760;2024-03-22T04:37:25;22.70;;;11.57;;
52718;SDS011;38616;42.140;24.760;2024-03-22T04:39:50;23.48;;;11.75;;
52718;SDS011;38616;42.140;24.760;2024-03-22T04:42:16;20.23;;;9.95;;
52718;SDS011;38616;42.140;24.760;2024-03-22T04:44:41;23.40;;;11.55;;
52718;SDS011;38616;42.140;24.760;2024-03-22T04:47:07;20.70;;;10.40;;
52718;SDS011;38616;42.140;24.760;2024-03-22T04:49:32;22.23;;;10.40;;
52718;SDS011;38616;42.140;24.760;2024-03-22T04:51:58;18.00;;;9.95;;
52718;SDS011;38616;42.140;24.760;2024-03-22T04:54:23;21.38;;;10.63;;
52718;SDS011;38616;42.140;24.760;2024-03-22T04:56:49;20.17;;;9.90;;
52718;SDS011;38616;42.140;24.760;2024-03-22T04:59:15;20.58;;;9.85;;
52718;SDS011;38616;42.140;24.760;2024-03-22T05:01:40;23.05;;;10.73;;
52718;SDS011;38616;42.140;24.760;2024-03-22T05:04:06;24.40;;;12.02;;
52718;SDS011;38616;42.140;24.760;2024-03-22T05:06:33;19.98;;;11.38;;
52718;SDS011;38616;42.140;24.760;2024-03-22T05:08:59;18.05;;;9.23;;
52718;SDS011;38616;42.140;24.760;2024-03-22T05:11:24;20.77;;;9.80;;
52718;SDS011;38616;42.140;24.760;2024-03-22T05:13:50;20.27;;;9.68;;
52718;SDS011;38616;42.140;24.760;2024-03-22T05:16:15;19.02;;;9.52;;
52718;SDS011;38616;42.140;24.760;2024-03-22T05:18:41;19.65;;;9.70;;
52718;SDS011;38616;42.140;24.760;2024-03-22T05:21:09;20.67;;;10.02;;
52718;SDS011;38616;42.140;24.760;2024-03-22T05:23:34;22.90;;;10.63;;
52718;SDS011;38616;42.140;24.760;2024-03-22T05:26:00;18.73;;;9.45;;
52718;SDS011;38616;42.140;24.760;2024-03-22T05:28:25;25.40;;;11.15;;
52718;SDS011;38616;42.140;24.760;2024-03-22T05:30:51;19.45;;;10.00;;
52718;SDS011;38616;42.140;24.760;2024-03-22T05:33:16;22.30;;;10.40;;
52718;SDS011;38616;42.140;24.760;2024-03-22T05:35:42;27.65;;;10.85;;
52718;SDS011;38616;42.140;24.760;2024-03-22T05:38:07;25.73;;;12.07;;
52718;SDS011;38616;42.140;24.760;2024-03-22T05:40:35;41.75;;;15.27;;
52718;SDS011;38616;42.140;24.760;2024-03-22T05:43:02;35.25;;;13.73;;
52718;SDS011;38616;42.140;24.760;2024-03-22T05:45:27;24.75;;;11.02;;
52718;SDS011;38616;42.140;24.760;2024-03-22T05:47:53;18.52;;;10.70;;
52718;SDS011;38616;42.140;24.760;2024-03-22T05:50:19;23.92;;;10.55;;
52718;SDS011;38616;42.140;24.760;2024-03-22T05:52:45;23.55;;;11.07;;
52718;SDS011;38616;42.140;24.760;2024-03-22T05:55:11;20.42;;;9.98;;
52718;SDS011;38616;42.140;24.760;2024-03-22T05:57:36;19.35;;;8.85;;
52718;SDS011;38616;42.140;24.760;2024-03-22T06:00:02;18.35;;;8.48;;
52718;SDS011;38616;42.140;24.760;2024-03-22T06:02:29;18.67;;;9.40;;
52718;SDS011;38616;42.140;24.760;2024-03-22T06:04:54;24.25;;;10.35;;
52718;SDS011;38616;42.140;24.760;2024-03-22T06:07:20;23.02;;;11.45;;
52718;SDS011;38616;42.140;24.760;2024-03-22T06:09:45;19.77;;;10.52;;
52718;SDS011;38616;42.140;24.760;2024-03-22T06:12:14;21.67;;;10.60;;
52718;SDS011;38616;42.140;24.760;2024-03-22T06:14:41;24.70;;;11.68;;
52718;SDS011;38616;42.140;24.760;2024-03-22T06:17:11;28.55;;;12.60;;
52718;SDS011;38616;42.140;24.760;2024-03-22T06:19:37;20.75;;;9.77;;
52718;SDS011;38616;42.140;24.760;2024-03-22T06:22:03;18.70;;;9.27;;
52718;SDS011;38616;42.140;24.760;2024-03-22T06:24:28;21.85;;;10.70;;
52718;SDS011;38616;42.140;24.760;2024-03-22T06:26:54;15.77;;;8.32;;
52718;SDS011;38616;42.140;24.760;2024-03-22T06:29:20;17.10;;;9.27;;
52718;SDS011;38616;42.140;24.760;2024-03-22T06:31:48;16.27;;;9.02;;
52718;SDS011;38616;42.140;24.760;2024-03-22T06:34:15;23.10;;;9.82;;
52718;SDS011;38616;42.140;24.760;2024-03-22T06:36:41;17.13;;;8.48;;
52718;SDS011;38616;42.140;24.760;2024-03-22T06:39:09;25.42;;;9.75;;
52718;SDS011;38616;42.140;24.760;2024-03-22T06:41:35;18.42;;;8.55;;
52718;SDS011;38616;42.140;24.760;2024-03-22T06:44:00;20.63;;;9.43;;
52718;SDS011;38616;42.140;24.760;2024-03-22T06:46:26;22.88;;;8.77;;
52718;SDS011;38616;42.140;24.760;2024-03-22T06:48:52;17.90;;;8.07;;
52718;SDS011;38616;42.140;24.760;2024-03-22T06:51:18;17.05;;;7.72;;
52718;SDS011;38616;42.140;24.760;2024-03-22T06:53:43;16.48;;;7.55;;
52718;SDS011;38616;42.140;24.760;2024-03-22T06:56:10;20.63;;;8.07;;
52718;SDS011;38616;42.140;24.760;2024-03-22T06:58:37;16.33;;;7.88;;
52718;SDS011;38616;42.140;24.760;2024-03-22T07:01:03;17.50;;;7.28;;
52718;SDS011;38616;42.140;24.760;2024-03-22T07:03:29;17.13;;;8.02;;
52718;SDS011;38616;42.140;24.760;2024-03-22T07:05:55;19.55;;;8.73;;
52718;SDS011;38616;42.140;24.760;2024-03-22T07:08:20;15.50;;;7.75;;
52718;SDS011;38616;42.140;24.760;2024-03-22T07:10:46;20.08;;;7.82;;
52718;SDS011;38616;42.140;24.760;2024-03-22T07:13:11;17.85;;;6.97;;
52718;SDS011;38616;42.140;24.760;2024-03-22T07:15:37;15.75;;;6.47;;
52718;SDS011;38616;42.140;24.760;2024-03-22T07:18:02;15.30;;;7.13;;
52718;SDS011;38616;42.140;24.760;2024-03-22T07:20:28;15.98;;;7.40;;
52718;SDS011;38616;42.140;24.760;2024-03-22T07:22:55;16.58;;;7.65;;
52718;SDS011;38616;42.140;24.760;2024-03-22T07:25:21;16.63;;;7.05;;
52718;SDS011;38616;42.140;24.760;2024-03-22T07:27:49;14.63;;;7.75;;
52718;SDS011;38616;42.140;24.760;2024-03-22T07:30:14;14.98;;;6.68;;
52718;SDS011;38616;42.140;24.760;2024-03-22T07:32:40;16.35;;;7.68;;
52718;SDS011;38616;42.140;24.760;2024-03-22T07:35:05;16.65;;;8.48;;
52718;SDS011;38616;42.140;24.760;2024-03-22T07:37:34;16.70;;;7.82;;
52718;SDS011;38616;42.140;24.760;2024-03-22T07:42:26;15.93;;;7.10;;
52718;SDS011;38616;42.140;24.760;2024-03-22T07:44:52;23.38;;;8.55;;
52718;SDS011;38616;42.140;24.760;2024-03-22T07:47:17;16.90;;;7.10;;
52718;SDS011;38616;42.140;24.760;2024-03-22T07:49:43;16.17;;;7.30;;
52718;SDS011;38616;42.140;24.760;2024-03-22T07:52:08;15.57;;;7.03;;
52718;SDS011;38616;42.140;24.760;2024-03-22T07:54:34;14.82;;;7.68;;
52718;SDS011;38616;42.140;24.760;2024-03-22T07:56:59;16.15;;;6.63;;
52718;SDS011;38616;42.140;24.760;2024-03-22T07:59:25;17.92;;;7.18;;
52718;SDS011;38616;42.140;24.760;2024-03-22T08:01:50;20.58;;;7.60;;
52718;SDS011;38616;42.140;24.760;2024-03-22T08:04:16;12.98;;;6.75;;
52718;SDS011;38616;42.140;24.760;2024-03-22T08:06:41;13.75;;;6.32;;
52718;SDS011;38616;42.140;24.760;2024-03-22T08:09:07;14.88;;;6.72;;
52718;SDS011;38616;42.140;24.760;2024-03-22T08:11:33;15.02;;;6.43;;
52718;SDS011;38616;42.140;24.760;2024-03-22T08:13:58;14.85;;;6.85;;
52718;SDS011;38616;42.140;24.760;2024-03-22T08:16:31;15.32;;;6.97;;
52718;SDS011;38616;42.140;24.760;2024-03-22T08:18:57;13.50;;;6.53;;
52718;SDS011;38616;42.140;24.760;2024-03-22T08:21:23;10.65;;;5.55;;
52718;SDS011;38616;42.140;24.760;2024-03-22T08:23:49;15.23;;;7.15;;
52718;SDS011;38616;42.140;24.760;2024-03-22T08:26:14;16.45;;;6.28;;
52718;SDS011;38616;42.140;24.760;2024-03-22T08:28:40;15.88;;;7.03;;
52718;SDS011;38616;42.140;24.760;2024-03-22T08:31:05;13.18;;;6.25;;
52718;SDS011;38616;42.140;24.760;2024-03-22T08:33:31;16.85;;;6.70;;
52718;SDS011;38616;42.140;24.760;2024-03-22T08:35:56;11.73;;;6.55;;
52718;SDS011;38616;42.140;24.760;2024-03-22T08:38:21;13.75;;;7.80;;
52718;SDS011;38616;42.140;24.760;2024-03-22T08:40:47;16.15;;;6.65;;
52718;SDS011;38616;42.140;24.760;2024-03-22T08:43:13;17.73;;;6.90;;
52718;SDS011;38616;42.140;24.760;2024-03-22T08:45:38;15.30;;;6.70;;
52718;SDS011;38616;42.140;24.760;2024-03-22T08:48:04;15.80;;;6.90;;
52718;SDS011;38616;42.140;24.760;2024-03-22T08:50:30;13.77;;;6.32;;
52718;SDS011;38616;42.140;24.760;2024-03-22T08:55:28;16.65;;;7.07;;
52718;SDS011;38616;42.140;24.760;2024-03-22T08:57:54;13.45;;;6.90;;
52718;SDS011;38616;42.140;24.760;2024-03-22T09:00:19;15.02;;;6.05;;
52718;SDS011;38616;42.140;24.760;2024-03-22T09:02:45;13.98;;;5.43;;
52718;SDS011;38616;42.140;24.760;2024-03-22T09:05:11;15.43;;;5.20;;
52718;SDS011;38616;42.140;24.760;2024-03-22T09:07:36;15.88;;;6.35;;
52718;SDS011;38616;42.140;24.760;2024-03-22T09:10:02;11.48;;;6.30;;
52718;SDS011;38616;42.140;24.760;2024-03-22T09:12:27;11.88;;;6.35;;
52718;SDS011;38616;42.140;24.760;2024-03-22T09:14:53;13.05;;;6.20;;
52718;SDS011;38616;42.140;24.760;2024-03-22T09:17:18;12.98;;;5.75;;
52718;SDS011;38616;42.140;24.760;2024-03-22T09:19:44;13.82;;;5.75;;
52718;SDS011;38616;42.140;24.760;2024-03-22T09:22:09;15.40;;;5.65;;
52718;SDS011;38616;42.140;24.760;2024-03-22T09:24:35;10.73;;;5.13;;
52718;SDS011;38616;42.140;24.760;2024-03-22T09:27:00;10.55;;;5.72;;
52718;SDS011;38616;42.140;24.760;2024-03-22T09:29:26;10.00;;;5.80;;
52718;SDS011;38616;42.140;24.760;2024-03-22T09:31:51;9.30;;;4.75;;
52718;SDS011;38616;42.140;24.760;2024-03-22T09:34:17;8.90;;;4.97;;
52718;SDS011;38616;42.140;24.760;2024-03-22T09:36:42;9.18;;;4.32;;
52718;SDS011;38616;42.140;24.760;2024-03-22T09:39:07;12.05;;;5.38;;
52718;SDS011;38616;42.140;24.760;2024-03-22T09:41:33;8.30;;;4.18;;
52718;SDS011;38616;42.140;24.760;2024-03-22T09:44:07;8.27;;;4.40;;
52718;SDS011;38616;42.140;24.760;2024-03-22T09:46:38;13.98;;;4.65;;
52718;SDS011;38616;42.140;24.760;2024-03-22T09:49:08;12.48;;;5.15;;
52718;SDS011;38616;42.140;24.760;2024-03-22T09:51:36;6.28;;;3.35;;
52718;SDS011;38616;42.140;24.760;2024-03-22T09:54:02;11.43;;;4.63;;
52718;SDS011;38616;42.140;24.760;2024-03-22T09:56:28;10.85;;;4.40;;
52718;SDS011;38616;42.140;24.760;2024-03-22T09:58:56;10.70;;;4.72;;
52718;SDS011;38616;42.140;24.760;2024-03-22T10:01:25;8.52;;;3.95;;
52718;SDS011;38616;42.140;24.760;2024-03-22T10:03:51;10.73;;;3.65;;
52718;SDS011;38616;42.140;24.760;2024-03-22T10:06:17;7.57;;;3.80;;
52718;SDS011;38616;42.140;24.760;2024-03-22T10:08:46;7.40;;;3.72;;
52718;SDS011;38616;42.140;24.760;2024-03-22T10:11:11;13.98;;;3.42;;
52718;SDS011;38616;42.140;24.760;2024-03-22T10:13:40;8.85;;;3.65;;
52718;SDS011;38616;42.140;24.760;2024-03-22T10:16:05;10.35;;;4.32;;
52718;SDS011;38616;42.140;24.760;2024-03-22T10:18:32;7.13;;;3.65;;
52718;SDS011;38616;42.140;24.760;2024-03-22T10:21:02;5.00;;;3.30;;
52718;SDS011;38616;42.140;24.760;2024-03-22T10:23:29;7.97;;;3.58;;
52718;SDS011;38616;42.140;24.760;2024-03-22T10:25:56;7.43;;;3.50;;
52718;SDS011;38616;42.140;24.760;2024-03-22T10:28:23;9.30;;;3.72;;
52718;SDS011;38616;42.140;24.760;2024-03-22T10:30:52;8.60;;;3.10;;
52718;SDS011;38616;42.140;24.760;2024-03-22T10:33:18;8.32;;;3.65;;
52718;SDS011;38616;42.140;24.760;2024-03-22T10:35:45;6.50;;;3.80;;
52718;SDS011;38616;42.140;24.760;2024-03-22T10:38:14;7.15;;;3.50;;
52718;SDS011;38616;42.140;24.760;2024-03-22T10:40:44;6.47;;;3.35;;
52718;SDS011;38616;42.140;24.760;2024-03-22T10:43:16;7.60;;;3.33;;
52718;SDS011;38616;42.140;24.760;2024-03-22T10:45:42;6.90;;;3.55;;
52718;SDS011;38616;42.140;24.760;2024-03-22T10:48:11;7.68;;;3.70;;
52718;SDS011;38616;42.140;24.760;2024-03-22T10:50:40;9.63;;;3.20;;
52718;SDS011;38616;42.140;24.760;2024-03-22T10:53:11;6.97;;;2.78;;
52718;SDS011;38616;42.140;24.760;2024-03-22T10:55:44;6.85;;;3.15;;
52718;SDS011;38616;42.140;24.760;2024-03-22T10:58:17;7.40;;;3.22;;
52718;SDS011;38616;42.140;24.760;2024-03-22T11:00:46;8.75;;;3.90;;
52718;SDS011;38616;42.140;24.760;2024-03-22T11:03:12;5.78;;;3.03;;
52718;SDS011;38616;42.140;24.760;2024-03-22T11:05:48;4.22;;;2.85;;
52718;SDS011;38616;42.140;24.760;2024-03-22T11:08:28;4.57;;;2.90;;
52718;SDS011;38616;42.140;24.760;2024-03-22T11:10:58;6.45;;;3.35;;
52718;SDS011;38616;42.140;24.760;2024-03-22T11:13:41;5.45;;;3.13;;
52718;SDS011;38616;42.140;24.760;2024-03-22T11:16:07;5.22;;;2.88;;
52718;SDS011;38616;42.140;24.760;2024-03-22T11:18:35;4.32;;;2.10;;
52718;SDS011;38616;42.140;24.760;2024-03-22T11:21:00;8.82;;;2.30;;
52718;SDS011;38616;42.140;24.760;2024-03-22T11:23:26;3.42;;;1.98;;
52718;SDS011;38616;42.140;24.760;2024-03-22T11:25:51;6.72;;;2.60;;
52718;SDS011;38616;42.140;24.760;2024-03-22T11:28:17;6.57;;;3.03;;
52718;SDS011;38616;42.140;24.760;2024-03-22T11:30:44;5.00;;;2.60;;
52718;SDS011;38616;42.140;24.760;2024-03-22T11:33:09;5.13;;;2.70;;
52718;SDS011;38616;42.140;24.760;2024-03-22T11:35:35;5.85;;;2.45;;
52718;SDS011;38616;42.140;24.760;2024-03-22T11:38:01;6.80;;;3.22;;
52718;SDS011;38616;42.140;24.760;2024-03-22T11:40:26;4.18;;;2.20;;
52718;SDS011;38616;42.140;24.760;2024-03-22T11:42:55;7.88;;;2.58;;
52718;SDS011;38616;42.140;24.760;2024-03-22T11:45:22;5.00;;;2.72;;
52718;SDS011;38616;42.140;24.760;2024-03-22T11:47:48;4.05;;;2.35;;
52718;SDS011;38616;42.140;24.760;2024-03-22T11:50:14;4.38;;;2.10;;
52718;SDS011;38616;42.140;24.760;2024-03-22T11:52:43;10.68;;;4.07;;
52718;SDS011;38616;42.140;24.760;2024-03-22T11:55:12;4.32;;;2.20;;
52718;SDS011;38616;42.140;24.760;2024-03-22T11:57:38;4.60;;;2.47;;
52718;SDS011;38616;42.140;24.760;2024-03-22T12:00:04;4.07;;;2.40;;
52718;SDS011;38616;42.140;24.760;2024-03-22T12:02:35;2.75;;;1.65;;
52718;SDS011;38616;42.140;24.760;2024-03-22T12:05:01;3.03;;;2.20;;
52718;SDS011;38616;42.140;24.760;2024-03-22T12:07:28;4.03;;;2.17;;
52718;SDS011;38616;42.140;24.760;2024-03-22T12:09:53;4.43;;;2.30;;
52718;SDS011;38616;42.140;24.760;2024-03-22T12:12:20;4.03;;;2.50;;
52718;SDS011;38616;42.140;24.760;2024-03-22T12:14:47;9.60;;;1.92;;
52718;SDS011;38616;42.140;24.760;2024-03-22T12:17:15;4.10;;;2.25;;
52718;SDS011;38616;42.140;24.760;2024-03-22T12:19:41;3.20;;;1.90;;
52718;SDS011;38616;42.140;24.760;2024-03-22T12:22:06;3.30;;;1.80;;
52718;SDS011;38616;42.140;24.760;2024-03-22T12:24:32;5.18;;;1.98;;
52718;SDS011;38616;42.140;24.760;2024-03-22T12:26:57;5.88;;;2.67;;
52718;SDS011;38616;42.140;24.760;2024-03-22T12:29:23;2.97;;;1.70;;
52718;SDS011;38616;42.140;24.760;2024-03-22T12:31:49;3.90;;;1.88;;
52718;SDS011;38616;42.140;24.760;2024-03-22T12:34:15;2.95;;;1.90;;
52718;SDS011;38616;42.140;24.760;2024-03-22T12:36:41;2.45;;;1.65;;
52718;SDS011;38616;42.140;24.760;2024-03-22T12:39:07;6.30;;;2.20;;
52718;SDS011;38616;42.140;24.760;2024-03-22T12:41:33;3.15;;;1.98;;
52718;SDS011;38616;42.140;24.760;2024-03-22T12:43:59;3.85;;;1.75;;
52718;SDS011;38616;42.140;24.760;2024-03-22T12:48:54;4.00;;;1.90;;
52718;SDS011;38616;42.140;24.760;2024-03-22T12:51:20;2.95;;;1.73;;
52718;SDS011;38616;42.140;24.760;2024-03-22T12:53:46;4.15;;;2.05;;
52718;SDS011;38616;42.140;24.760;2024-03-22T12:56:11;4.32;;;1.65;;
52718;SDS011;38616;42.140;24.760;2024-03-22T12:58:37;3.33;;;2.08;;
52718;SDS011;38616;42.140;24.760;2024-03-22T13:01:04;5.88;;;2.28;;
52718;SDS011;38616;42.140;24.760;2024-03-22T13:03:31;3.50;;;1.77;;
52718;SDS011;38616;42.140;24.760;2024-03-22T13:05:57;2.55;;;1.50;;
52718;SDS011;38616;42.140;24.760;2024-03-22T13:08:23;3.90;;;1.65;;
52718;SDS011;38616;42.140;24.760;2024-03-22T13:10:48;3.33;;;1.95;;
52718;SDS011;38616;42.140;24.760;2024-03-22T13:13:14;3.35;;;1.98;;
52718;SDS011;38616;42.140;24.760;2024-03-22T13:15:41;3.72;;;1.95;;
52718;SDS011;38616;42.140;24.760;2024-03-22T13:18:07;7.82;;;2.17;;
52718;SDS011;38616;42.140;24.760;2024-03-22T13:20:34;3.28;;;1.48;;
52718;SDS011;38616;42.140;24.760;2024-03-22T13:23:00;5.68;;;1.88;;
52718;SDS011;38616;42.140;24.760;2024-03-22T13:25:26;3.15;;;2.05;;
52718;SDS011;38616;42.140;24.760;2024-03-22T13:27:52;3.05;;;1.45;;
52718;SDS011;38616;42.140;24.760;2024-03-22T13:30:17;2.78;;;1.65;;
52718;SDS011;38616;42.140;24.760;2024-03-22T13:32:43;2.97;;;1.70;;
52718;SDS011;38616;42.140;24.760;2024-03-22T13:35:10;4.80;;;1.60;;
52718;SDS011;38616;42.140;24.760;2024-03-22T13:37:35;4.30;;;2.15;;
52718;SDS011;38616;42.140;24.760;2024-03-22T13:40:01;6.93;;;1.88;;
52718;SDS011;38616;42.140;24.760;2024-03-22T13:42:27;5.88;;;2.15;;
52718;SDS011;38616;42.140;24.760;2024-03-22T13:44:52;3.53;;;1.80;;
52718;SDS011;38616;42.140;24.760;2024-03-22T13:47:18;5.20;;;2.22;;
52718;SDS011;38616;42.140;24.760;2024-03-22T13:49:43;6.70;;;1.90;;
52718;SDS011;38616;42.140;24.760;2024-03-22T13:52:10;5.85;;;2.60;;
52718;SDS011;38616;42.140;24.760;2024-03-22T13:54:36;15.07;;;7.25;;
52718;SDS011;38616;42.140;24.760;2024-03-22T13:57:02;7.75;;;3.13;;
52718;SDS011;38616;42.140;24.760;2024-03-22T13:59:28;4.22;;;2.00;;
52718;SDS011;38616;42.140;24.760;2024-03-22T14:01:54;3.25;;;1.90;;
52718;SDS011;38616;42.140;24.760;2024-03-22T14:04:19;4.80;;;1.90;;
52718;SDS011;38616;42.140;24.760;2024-03-22T14:06:45;6.40;;;1.80;;
52718;SDS011;38616;42.140;24.760;2024-03-22T14:09:11;5.13;;;2.30;;
52718;SDS011;38616;42.140;24.760;2024-03-22T14:11:38;4.55;;;2.53;;
52718;SDS011;38616;42.140;24.760;2024-03-22T14:14:04;4.50;;;1.63;;
52718;SDS011;38616;42.140;24.760;2024-03-22T14:16:30;3.70;;;1.70;;
52718;SDS011;38616;42.140;24.760;2024-03-22T14:18:55;3.05;;;1.67;;
52718;SDS011;38616;42.140;24.760;2024-03-22T14:21:21;3.28;;;1.70;;
52718;SDS011;38616;42.140;24.760;2024-03-22T14:26:12;4.63;;;2.40;;
52718;SDS011;38616;42.140;24.760;2024-03-22T14:28:38;4.30;;;1.92;;
52718;SDS011;38616;42.140;24.760;2024-03-22T14:31:08;3.60;;;2.00;;
52718;SDS011;38616;42.140;24.760;2024-03-22T14:33:37;5.28;;;2.47;;
52718;SDS011;38616;42.140;24.760;2024-03-22T14:36:04;3.78;;;1.85;;
52718;SDS011;38616;42.140;24.760;2024-03-22T14:38:30;4.80;;;2.40;;